createdAt,value
2017-09-07T00:01:02.035Z,66.50
2017-09-07T00:03:30.028Z,66.70
2017-09-07T00:05:58.022Z,66.60
2017-09-07T00:08:24.902Z,66.90
2017-09-07T00:10:51.851Z,66.50
2017-09-07T00:13:19.116Z,66.60
2017-09-07T00:15:46.767Z,66.50
2017-09-07T00:18:15.134Z,66.60
2017-09-07T00:20:43.484Z,66.60
2017-09-07T00:23:11.095Z,66.70
2017-09-07T00:25:37.964Z,67.20
2017-09-07T00:28:04.816Z,67.30
2017-09-07T00:33:00.179Z,67.00
2017-09-07T00:35:27.039Z,66.60
2017-09-07T00:40:23.360Z,67.30
2017-09-07T00:47:48.716Z,67.40
2017-09-07T00:50:16.329Z,66.60
2017-09-07T00:52:43.180Z,67.10
2017-09-07T00:55:10.027Z,66.80
2017-09-07T00:57:38.020Z,66.80
2017-09-07T01:00:05.648Z,67.60
2017-09-07T01:02:32.898Z,66.80
2017-09-07T01:04:59.785Z,67.10
2017-09-07T01:07:27.392Z,66.80
2017-09-07T01:09:54.252Z,66.90
2017-09-07T01:12:21.136Z,66.80
2017-09-07T01:14:48.086Z,67.30
2017-09-07T01:17:15.004Z,66.90
2017-09-07T01:19:41.905Z,66.80
2017-09-07T01:22:08.787Z,67.10
2017-09-07T01:24:35.644Z,67.10
2017-09-07T01:27:03.637Z,66.90
2017-09-07T01:29:30.592Z,67.30
2017-09-07T01:31:58.208Z,66.90
2017-09-07T01:34:26.203Z,67.00
2017-09-07T01:36:53.476Z,66.90
2017-09-07T01:39:20.323Z,67.00
2017-09-07T01:41:47.176Z,66.90
2017-09-07T01:44:14.041Z,67.30
2017-09-07T01:46:41.719Z,66.90
2017-09-07T01:49:09.345Z,67.40
2017-09-07T01:51:36.390Z,66.90
2017-09-07T01:54:03.244Z,67.00
2017-09-07T01:56:30.488Z,67.30
2017-09-07T01:58:57.335Z,66.90
2017-09-07T02:01:24.956Z,67.50
2017-09-07T02:03:52.584Z,66.90
2017-09-07T02:06:19.856Z,67.10
2017-09-07T02:08:47.503Z,67.00
2017-09-07T02:11:15.520Z,67.30
2017-09-07T02:13:42.372Z,67.00
2017-09-07T02:16:09.221Z,67.30
2017-09-07T02:18:37.243Z,67.10
2017-09-07T02:21:04.855Z,67.20
2017-09-07T02:23:32.100Z,66.90
2017-09-07T02:25:58.947Z,67.30
2017-09-07T02:28:25.848Z,66.90
2017-09-07T02:30:53.840Z,67.50
2017-09-07T02:33:21.118Z,67.00
2017-09-07T02:35:49.112Z,67.00
2017-09-07T02:38:15.965Z,67.50
2017-09-07T02:43:33.046Z,67.00
2017-09-07T02:45:59.935Z,67.30
2017-09-07T02:48:26.792Z,67.30
2017-09-07T02:50:53.650Z,67.20
2017-09-07T02:53:20.504Z,67.50
2017-09-07T02:55:47.361Z,67.10
2017-09-07T02:58:14.214Z,67.20
2017-09-07T03:00:41.056Z,67.70
2017-09-07T03:03:07.935Z,67.30
2017-09-07T03:05:35.655Z,67.20
2017-09-07T03:08:02.508Z,67.70
2017-09-07T03:10:29.353Z,67.40
2017-09-07T03:12:56.433Z,67.40
2017-09-07T03:15:23.284Z,67.20
2017-09-07T03:17:50.178Z,67.70
2017-09-07T03:20:17.052Z,67.20
2017-09-07T03:22:43.924Z,67.40
2017-09-07T03:25:11.855Z,67.20
2017-09-07T03:27:38.763Z,67.40
2017-09-07T03:30:05.765Z,67.30
2017-09-07T03:32:32.612Z,67.30
2017-09-07T03:35:00.411Z,67.20
2017-09-07T03:37:27.268Z,67.30
2017-09-07T03:39:54.150Z,67.80
2017-09-07T03:42:21.043Z,67.10
2017-09-07T03:44:49.873Z,67.20
2017-09-07T03:47:16.724Z,67.20
2017-09-07T03:49:43.663Z,67.30
2017-09-07T03:52:13.903Z,67.90
2017-09-07T03:54:40.763Z,67.30
2017-09-07T03:57:07.616Z,67.30
2017-09-07T03:59:34.468Z,67.30
2017-09-07T04:02:01.404Z,67.90
2017-09-07T04:04:28.649Z,67.20
2017-09-07T04:06:55.499Z,67.30
2017-09-07T04:09:22.347Z,67.60
2017-09-07T04:11:49.974Z,67.10
2017-09-07T04:14:17.221Z,67.80
2017-09-07T04:16:44.076Z,67.40
2017-09-07T04:19:11.087Z,67.30
2017-09-07T04:21:37.975Z,67.40
2017-09-07T04:24:04.828Z,67.70
2017-09-07T04:26:31.684Z,68.00
2017-09-07T04:28:58.532Z,67.90
2017-09-07T04:31:25.397Z,67.50
2017-09-07T04:33:52.244Z,67.50
2017-09-07T04:36:19.488Z,67.50
2017-09-07T04:38:46.750Z,67.80
2017-09-07T04:44:02.684Z,67.50
2017-09-07T04:46:29.580Z,67.50
2017-09-07T04:48:56.439Z,67.70
2017-09-07T04:51:23.324Z,67.70
2017-09-07T04:53:50.187Z,67.90
2017-09-07T04:56:17.051Z,67.60
2017-09-07T04:58:43.896Z,67.60
2017-09-07T05:01:10.743Z,67.80
2017-09-07T05:03:37.623Z,67.60
2017-09-07T05:06:04.475Z,67.60
2017-09-07T05:08:31.336Z,67.80
2017-09-07T05:13:48.781Z,67.50
2017-09-07T05:16:15.699Z,67.90
2017-09-07T05:18:42.604Z,67.80
2017-09-07T05:21:09.460Z,67.60
2017-09-07T05:23:36.753Z,67.70
2017-09-07T05:26:03.599Z,67.70
2017-09-07T05:28:30.448Z,67.80
2017-09-07T05:30:57.296Z,67.70
2017-09-07T05:33:24.139Z,67.70
2017-09-07T05:35:50.983Z,68.10
2017-09-07T05:38:17.840Z,67.80
2017-09-07T05:43:34.003Z,67.60
2017-09-07T05:46:00.851Z,68.00
2017-09-07T05:48:27.703Z,67.90
2017-09-07T05:50:54.595Z,68.20
2017-09-07T05:53:21.444Z,67.80
2017-09-07T05:55:49.239Z,68.00
2017-09-07T05:58:16.495Z,67.90
2017-09-07T06:00:44.538Z,67.80
2017-09-07T06:03:11.460Z,67.70
2017-09-07T06:05:38.312Z,67.90
2017-09-07T06:08:05.643Z,67.60
2017-09-07T06:10:32.499Z,67.60
2017-09-07T06:12:59.376Z,67.50
2017-09-07T06:15:26.248Z,67.60
2017-09-07T06:17:53.124Z,67.70
2017-09-07T06:20:19.984Z,67.60
2017-09-07T06:22:47.301Z,67.50
2017-09-07T06:25:14.548Z,67.70
2017-09-07T06:27:41.416Z,67.60
2017-09-07T06:30:10.860Z,67.90
2017-09-07T06:32:37.707Z,67.80
2017-09-07T06:35:05.321Z,67.60
2017-09-07T06:37:32.179Z,67.70
2017-09-07T06:39:59.051Z,67.80
2017-09-07T06:42:25.904Z,67.60
2017-09-07T06:44:52.796Z,67.70
2017-09-07T06:47:19.648Z,67.90
2017-09-07T06:49:46.535Z,67.70
2017-09-07T06:52:13.387Z,67.80
2017-09-07T06:54:40.227Z,67.70
2017-09-07T06:57:07.071Z,67.70
2017-09-07T06:59:34.267Z,67.80
2017-09-07T07:02:01.787Z,68.00
2017-09-07T07:04:29.426Z,67.90
2017-09-07T07:06:56.270Z,67.70
2017-09-07T07:09:23.512Z,68.00
2017-09-07T07:14:18.927Z,67.70
2017-09-07T07:16:45.791Z,68.00
2017-09-07T07:19:12.640Z,67.90
2017-09-07T07:21:39.927Z,67.90
2017-09-07T07:24:06.779Z,68.00
2017-09-07T07:26:33.652Z,67.80
2017-09-07T07:29:00.503Z,67.80
2017-09-07T07:31:27.355Z,67.90
2017-09-07T07:33:54.200Z,67.80
2017-09-07T07:36:21.048Z,67.80
2017-09-07T07:38:49.216Z,67.70
2017-09-07T07:47:11.808Z,67.70
2017-09-07T07:49:38.689Z,67.80
2017-09-07T07:52:06.680Z,67.70
2017-09-07T07:57:02.036Z,67.70
2017-09-07T07:59:30.391Z,67.70
2017-09-07T08:01:57.800Z,67.70
2017-09-07T08:04:24.701Z,67.70
2017-09-07T08:09:20.795Z,67.80
2017-09-07T08:11:47.644Z,67.80
2017-09-07T08:16:42.988Z,67.70
2017-09-07T08:19:10.241Z,67.80
2017-09-07T08:21:38.240Z,67.70
2017-09-07T08:24:05.092Z,67.90
2017-09-07T08:26:31.947Z,67.80
2017-09-07T08:28:58.795Z,67.90
2017-09-07T08:31:25.693Z,67.80
2017-09-07T08:33:52.568Z,67.80
2017-09-07T08:36:19.427Z,67.80
2017-09-07T08:38:47.412Z,67.70
2017-09-07T08:41:14.302Z,67.80
2017-09-07T08:43:41.155Z,67.80
2017-09-07T08:48:37.678Z,67.90
2017-09-07T08:51:04.536Z,67.80
2017-09-07T08:53:31.799Z,67.80
2017-09-07T08:55:58.644Z,67.90
2017-09-07T08:58:25.591Z,67.90
2017-09-07T09:00:52.863Z,67.80
2017-09-07T09:03:19.711Z,67.90
2017-09-07T09:05:47.328Z,67.80
2017-09-07T09:08:14.940Z,67.90
2017-09-07T09:10:42.655Z,67.90
2017-09-07T09:13:09.504Z,67.80
2017-09-07T09:15:36.883Z,67.90
2017-09-07T09:20:32.256Z,68.10
2017-09-07T09:22:59.516Z,68.00
2017-09-07T09:25:27.903Z,68.10
2017-09-07T09:30:24.092Z,68.00
2017-09-07T09:32:50.939Z,68.20
2017-09-07T09:35:17.796Z,68.10
2017-09-07T09:37:45.780Z,68.30
2017-09-07T09:42:41.116Z,68.30
2017-09-07T09:47:36.470Z,68.40
2017-09-07T09:50:03.714Z,68.20
2017-09-07T09:52:30.595Z,68.20
2017-09-07T09:54:57.447Z,68.30
2017-09-07T09:57:25.113Z,68.10
2017-09-07T09:59:52.740Z,68.20
2017-09-07T10:02:20.736Z,68.20
2017-09-07T10:07:16.083Z,68.30
2017-09-07T10:09:44.095Z,68.20
2017-09-07T10:14:40.961Z,68.00
2017-09-07T10:17:08.581Z,68.10
2017-09-07T10:19:35.435Z,68.40
2017-09-07T10:22:02.281Z,68.20
2017-09-07T10:24:29.928Z,68.20
2017-09-07T10:26:57.171Z,68.20
2017-09-07T10:29:24.459Z,68.10
2017-09-07T10:31:51.304Z,68.30
2017-09-07T10:34:18.920Z,68.10
2017-09-07T10:36:45.768Z,68.10
2017-09-07T10:39:12.642Z,68.20
2017-09-07T10:45:33.119Z,68.20
2017-09-07T10:50:28.468Z,68.30
2017-09-07T10:52:55.712Z,68.40
2017-09-07T10:57:51.098Z,68.40
2017-09-07T11:00:18.711Z,68.80
2017-09-07T11:02:45.560Z,68.30
2017-09-07T11:05:12.480Z,68.40
2017-09-07T11:10:16.868Z,68.40
2017-09-07T11:12:44.118Z,68.40
2017-09-07T11:15:12.111Z,68.40
2017-09-07T11:17:39.719Z,68.30
2017-09-07T11:20:06.601Z,68.60
2017-09-07T11:22:33.471Z,68.20
2017-09-07T11:27:29.979Z,68.40
2017-09-07T11:29:57.685Z,68.30
2017-09-07T11:32:24.540Z,68.40
2017-09-07T11:38:53.260Z,68.10
2017-09-07T11:41:20.874Z,68.10
2017-09-07T11:43:48.116Z,68.30
2017-09-07T11:46:18.729Z,68.30
2017-09-07T11:48:46.345Z,68.40
2017-09-07T11:51:13.621Z,68.20
2017-09-07T11:53:41.974Z,68.40
2017-09-07T11:56:09.219Z,68.20
2017-09-07T12:03:33.124Z,68.40
2017-09-07T12:12:20.614Z,68.10
2017-09-07T12:14:49.056Z,68.40
2017-09-07T12:17:17.064Z,68.20
2017-09-07T12:19:45.416Z,68.60
2017-09-07T12:22:13.060Z,68.50
2017-09-07T12:24:39.904Z,68.40
2017-09-07T12:29:36.231Z,68.60
2017-09-07T12:34:32.024Z,68.50
2017-09-07T12:36:58.879Z,68.60
2017-09-07T12:39:25.763Z,68.70
2017-09-07T12:44:32.174Z,68.90
2017-09-07T12:46:59.045Z,68.50
2017-09-07T12:51:54.471Z,68.70
2017-09-07T12:54:21.329Z,68.70
2017-09-07T12:59:17.354Z,68.70
2017-09-07T13:01:44.196Z,68.90
2017-09-07T13:04:13.950Z,68.70
2017-09-07T13:06:41.571Z,68.70
2017-09-07T13:09:08.415Z,68.80
2017-09-07T13:11:35.300Z,68.60
2017-09-07T13:16:32.142Z,68.70
2017-09-07T13:18:59.755Z,68.70
2017-09-07T13:21:26.632Z,68.70
2017-09-07T13:23:53.487Z,68.70
2017-09-07T13:26:20.331Z,68.70
2017-09-07T13:28:47.182Z,68.70
2017-09-07T13:33:43.301Z,68.90
2017-09-07T13:36:10.159Z,68.80
2017-09-07T13:43:56.607Z,68.70
2017-09-07T13:46:23.801Z,68.70
2017-09-07T13:51:19.641Z,68.70
2017-09-07T13:53:46.919Z,68.80
2017-09-07T13:56:14.527Z,68.80
2017-09-07T13:58:42.589Z,68.70
2017-09-07T14:01:09.444Z,68.90
2017-09-07T14:03:36.292Z,68.60
2017-09-07T14:06:04.279Z,68.50
2017-09-07T14:08:31.506Z,68.60
2017-09-07T14:10:59.507Z,68.80
2017-09-07T14:13:26.839Z,68.90
2017-09-07T14:18:22.216Z,68.60
2017-09-07T14:20:51.143Z,68.80
2017-09-07T14:23:19.129Z,68.60
2017-09-07T14:28:14.896Z,68.90
2017-09-07T14:30:41.801Z,68.70
2017-09-07T14:33:09.427Z,68.70
2017-09-07T14:35:36.275Z,68.60
2017-09-07T14:38:04.690Z,68.70
2017-09-07T14:43:00.084Z,68.60
2017-09-07T14:47:55.920Z,69.00
2017-09-07T14:50:22.773Z,68.70
2017-09-07T14:52:49.652Z,68.60
2017-09-07T14:55:16.892Z,68.60
2017-09-07T14:57:43.745Z,68.70
2017-09-07T15:00:10.605Z,68.60
2017-09-07T15:02:37.458Z,68.70
2017-09-07T15:05:04.703Z,68.70
2017-09-07T15:07:32.324Z,68.70
2017-09-07T15:09:59.964Z,68.70
2017-09-07T15:14:55.343Z,68.40
2017-09-07T15:17:23.334Z,68.70
2017-09-07T15:19:50.634Z,68.70
2017-09-07T15:24:47.396Z,68.60
2017-09-07T15:29:44.269Z,68.50
2017-09-07T15:34:39.639Z,68.60
2017-09-07T15:37:07.287Z,68.70
2017-09-07T15:39:34.537Z,68.80
2017-09-07T15:44:30.836Z,68.40
2017-09-07T15:51:08.565Z,68.50
2017-09-07T15:53:36.603Z,68.40
2017-09-07T15:56:04.219Z,68.40
2017-09-07T15:58:31.824Z,68.40
2017-09-07T16:03:27.747Z,68.50
2017-09-07T16:05:54.604Z,68.60
2017-09-07T16:26:57.844Z,68.40
2017-09-07T16:29:25.824Z,68.60
2017-09-07T16:31:53.511Z,68.60
2017-09-07T16:34:20.767Z,68.90
2017-09-07T16:36:47.656Z,68.70
2017-09-07T16:39:14.905Z,68.70
2017-09-07T16:47:17.080Z,68.70
2017-09-07T16:52:13.566Z,68.70
2017-09-07T16:54:40.408Z,68.70
2017-09-07T16:57:08.399Z,68.80
2017-09-07T16:59:35.284Z,68.80
2017-09-07T17:08:32.659Z,68.60
2017-09-07T17:10:59.907Z,68.60
2017-09-07T17:15:55.651Z,68.90
2017-09-07T17:18:23.651Z,68.60
2017-09-07T17:20:51.264Z,68.50
2017-09-07T17:23:19.024Z,68.80
2017-09-07T17:25:46.300Z,68.60
2017-09-07T17:28:13.571Z,68.50
2017-09-07T17:30:40.452Z,68.50
2017-09-07T17:33:07.312Z,68.60
2017-09-07T17:35:35.704Z,68.70
2017-09-07T17:38:03.323Z,68.50
